Time;durP1;ratioP1;P1;durP2;ratioP2;P2;SDS_P1;SDS_P2;PMS_P1;PMS_P2;Temp;Humidity;BMP_temperature;BMP_pressure;BME280_temperature;BME280_humidity;BME280_pressure;Samples;Min_cycle;Max_cycle;Signal;HPM_P1;HPM_P2
2021/12/19 01:53:11;;;;;;;0.60;0.60;;;;;;;6.41;100.00;102009.47;4918949;23;20079;-85
2021/12/19 01:56:14;;;;;;;28.77;1.33;;;;;;;6.47;100.00;102009.91;4934426;29;20055;-87
2021/12/19 01:59:17;;;;;;;0.40;0.40;;;;;;;6.43;100.00;102006.34;4904310;29;20195;-87
2021/12/19 02:02:20;;;;;;;39.35;3.03;;;;;;;6.38;100.00;102006.72;4929249;29;20054;-88
2021/12/19 02:05:25;;;;;;;4.63;2.75;;;;;;;6.36;100.00;102007.13;4918332;29;20510;-88
2021/12/19 02:08:29;;;;;;;6.72;2.17;;;;;;;6.27;100.00;101997.63;4914127;29;20047;-87
2021/12/19 02:11:37;;;;;;;0.65;0.65;;;;;;;6.06;100.00;101999.16;4916848;29;20043;-88
2021/12/19 02:14:40;;;;;;;0.38;0.35;;;;;;;6.11;100.00;102001.56;4928519;29;20111;-84
2021/12/19 02:17:43;;;;;;;2.17;0.80;;;;;;;6.21;100.00;101990.91;4927704;29;20051;-80
2021/12/19 02:20:52;;;;;;;0.43;0.43;;;;;;;6.22;100.00;101992.47;4917244;29;20135;-87
2021/12/19 02:24:00;;;;;;;1.60;0.30;;;;;;;6.35;100.00;102000.00;4918771;29;20038;-87
2021/12/19 02:27:03;;;;;;;5.60;2.85;;;;;;;6.40;100.00;101988.53;4917859;29;20705;-87
2021/12/19 02:30:08;;;;;;;3.10;0.80;;;;;;;6.49;100.00;101999.22;4918169;29;20447;-87
2021/12/19 02:33:16;;;;;;;1.83;1.73;;;;;;;6.48;100.00;101986.56;4917514;29;20043;-87
2021/12/19 02:36:28;;;;;;;4.45;0.65;;;;;;;6.51;100.00;101988.53;4917245;29;20179;-86
2021/12/19 02:49:40;;;;;;;3.97;1.20;;;;;;;6.21;100.00;101991.69;4917953;29;20079;-86
2021/12/19 03:55:28;;;;;;;1.23;1.23;;;;;;;5.07;100.00;101933.66;4848886;29;20140;-47
2021/12/19 03:58:31;;;;;;;26.05;2.03;;;;;;;5.06;100.00;101943.16;4875380;29;20140;-47
2021/12/19 04:01:34;;;;;;;3.60;0.75;;;;;;;5.05;100.00;101930.50;4865652;29;20508;-46
2021/12/19 04:04:38;;;;;;;1.35;0.82;;;;;;;4.95;100.00;101925.72;4876070;29;20512;-46
2021/12/19 04:07:41;;;;;;;1.05;0.70;;;;;;;4.91;100.00;101930.44;4863913;29;20056;-46
2021/12/19 04:10:46;;;;;;;0.52;0.52;;;;;;;4.85;100.00;101921.72;4875432;29;20417;-46
2021/12/19 04:13:49;;;;;;;0.20;0.20;;;;;;;4.79;100.00;101923.28;4876031;29;20417;-46
2021/12/19 04:16:51;;;;;;;1.10;0.50;;;;;;;4.74;100.00;101920.91;4864226;29;20101;-46
2021/12/19 04:19:55;;;;;;;0.60;0.60;;;;;;;4.70;100.00;101922.06;4864206;29;20871;-46
2021/12/19 04:22:58;;;;;;;2.72;0.52;;;;;;;4.57;100.00;101916.84;4875763;29;20051;-46
2021/12/19 04:26:01;;;;;;;0.82;0.50;;;;;;;4.48;100.00;101919.13;4876252;29;20105;-46
2021/12/19 04:29:04;;;;;;;0.28;0.28;;;;;;;4.41;100.00;101924.63;4875434;29;20064;-46
2021/12/19 04:32:08;;;;;;;1.67;1.30;;;;;;;4.35;100.00;101920.63;4876294;29;20047;-46
2021/12/19 04:35:12;;;;;;;3.53;0.30;;;;;;;4.32;100.00;101907.59;4864399;29;20093;-47
2021/12/19 05:54:59;;;;;;;1.13;0.63;;;;;;;3.85;100.00;101869.03;4932849;23;20078;-46
2021/12/19 05:58:02;;;;;;;1.83;0.75;;;;;;;3.81;100.00;101859.94;4941283;28;20383;-46
2021/12/19 06:01:06;;;;;;;0.40;0.40;;;;;;;3.73;100.00;101859.06;4952776;28;20118;-46
2021/12/19 06:04:10;;;;;;;1.45;0.75;;;;;;;3.70;100.00;101854.31;4953740;28;20387;-46
2021/12/19 06:07:13;;;;;;;0.20;0.20;;;;;;;3.69;100.00;101850.00;4953431;28;20054;-46
2021/12/19 06:10:17;;;;;;;1.45;0.85;;;;;;;3.72;100.00;101848.44;4934633;28;20094;-46
2021/12/19 06:13:20;;;;;;;0.28;0.28;;;;;;;3.75;100.00;101844.91;4953259;28;20129;-46
2021/12/19 06:16:23;;;;;;;0.30;0.30;;;;;;;3.78;100.00;101846.91;4953810;28;20545;-46
2021/12/19 06:19:26;;;;;;;22.15;1.40;;;;;;;3.78;100.00;101841.41;4951966;28;20062;-46
2021/12/19 06:22:29;;;;;;;0.20;0.15;;;;;;;3.68;100.00;101842.88;4953307;28;20090;-46
2021/12/19 06:25:32;;;;;;;0.73;0.70;;;;;;;3.66;100.00;101849.97;4952387;28;20510;-46
2021/12/19 06:28:36;;;;;;;0.20;0.20;;;;;;;3.65;100.00;101840.09;4953731;28;20050;-46
2021/12/19 06:31:40;;;;;;;1.17;0.60;;;;;;;3.68;100.00;101839.34;4952869;28;20069;-46
2021/12/19 06:34:43;;;;;;;0.20;0.20;;;;;;;3.69;100.00;101841.72;4953452;28;20058;-46
2021/12/19 06:37:48;;;;;;;1.17;0.70;;;;;;;3.61;100.00;101842.03;4951970;28;20050;-46
2021/12/19 06:40:51;;;;;;;0.35;0.28;;;;;;;3.55;100.00;101844.34;4953594;28;20158;-46
2021/12/19 06:43:54;;;;;;;3.28;1.45;;;;;;;3.50;100.00;101841.16;4953174;28;20055;-46
2021/12/19 06:46:57;;;;;;;6.57;2.72;;;;;;;3.48;100.00;101840.75;4942250;28;20576;-46
2021/12/19 06:50:01;;;;;;;0.52;0.47;;;;;;;3.45;100.00;101834.03;4933720;29;20134;-46
2021/12/19 15:16:23;;;;;;;16.00;2.55;;;;;;;4.82;100.00;101569.22;6177199;22;1375909;-54
2021/12/19 15:19:26;;;;;;;7.57;1.20;;;;;;;4.70;100.00;101571.59;6201159;23;20027;-53
2021/12/19 15:22:31;;;;;;;2.67;2.13;;;;;;;4.69;100.00;101570.00;6190220;23;20139;-56
2021/12/19 15:25:34;;;;;;;1.05;1.05;;;;;;;4.66;100.00;101570.81;6189885;23;20028;-50
2021/12/19 15:28:37;;;;;;;3.47;1.73;;;;;;;4.69;100.00;101570.00;6190704;23;20047;-51
2021/12/19 15:31:40;;;;;;;9.02;1.33;;;;;;;4.65;100.00;101563.69;6190278;23;20086;-50
2021/12/19 15:34:43;;;;;;;7.97;2.10;;;;;;;4.59;100.00;101558.56;6190375;23;20040;-51
2021/12/19 15:37:46;;;;;;;5.47;1.23;;;;;;;4.56;100.00;101558.56;6189917;23;20112;-50
2021/12/19 15:40:49;;;;;;;2.97;1.17;;;;;;;4.63;100.00;101561.34;6190927;23;20516;-50
2021/12/19 15:43:52;;;;;;;5.53;1.58;;;;;;;4.67;100.00;101562.13;6206472;23;20468;-50
2021/12/19 15:46:58;;;;;;;1.48;0.73;;;;;;;4.80;100.00;101557.00;6189814;23;20074;-51
2021/12/19 15:50:01;;;;;;;3.10;1.27;;;;;;;4.86;100.00;101552.66;6183116;23;20031;-51
2021/12/19 15:53:06;;;;;;;3.08;1.02;;;;;;;4.80;100.00;101560.53;6190315;23;20036;-51
2021/12/19 15:56:09;;;;;;;6.15;0.82;;;;;;;4.75;100.00;101562.91;6189861;23;20028;-51
2021/12/19 15:59:12;;;;;;;5.47;1.35;;;;;;;4.83;100.00;101570.00;6190130;23;20059;-51
2021/12/19 16:02:15;;;;;;;1.50;0.90;;;;;;;4.78;100.00;101565.69;6190121;23;20349;-51
2021/12/19 16:05:20;;;;;;;3.03;1.10;;;;;;;4.87;100.00;101565.28;6220532;23;20031;-50
2021/12/19 17:41:09;;;;;;;5.53;2.38;;;;;;;5.78;100.00;101564.28;6213922;22;1349216;-53
2021/12/19 17:44:12;;;;;;;3.45;2.85;;;;;;;5.79;100.00;101565.84;6173260;22;20079;-50
2021/12/19 17:47:15;;;;;;;4.25;1.98;;;;;;;5.68;100.00;101570.63;6249112;22;20081;-50
2021/12/19 17:50:18;;;;;;;7.45;1.73;;;;;;;5.61;100.00;101571.44;6152755;23;20031;-50
2021/12/19 17:53:22;;;;;;;6.03;2.00;;;;;;;5.58;100.00;101572.25;6212339;22;20027;-50
2021/12/19 17:56:25;;;;;;;12.40;2.40;;;;;;;5.54;100.00;101570.69;6220004;22;20356;-50
2021/12/19 17:59:28;;;;;;;12.40;1.77;;;;;;;5.56;100.00;101569.09;6196352;23;20023;-50
2021/12/19 18:02:31;;;;;;;5.38;1.50;;;;;;;5.49;100.00;101568.31;6161139;22;20428;-51
2021/12/19 18:05:35;;;;;;;10.23;4.40;;;;;;;5.43;100.00;101565.19;6250616;22;20027;-51
2021/12/19 18:08:39;;;;;;;3.53;1.92;;;;;;;5.45;100.00;101562.81;6191729;22;20086;-51
2021/12/19 18:11:41;;;;;;;10.73;4.10;;;;;;;5.56;100.00;101560.81;6194721;22;20094;-50
2021/12/19 18:14:45;;;;;;;10.60;3.70;;;;;;;5.74;100.00;101553.22;6223693;22;20066;-50
2021/12/19 18:17:51;;;;;;;1.27;1.17;;;;;;;5.80;100.00;101562.69;6186496;22;20051;-55
2021/12/19 18:20:55;;;;;;;2.70;1.20;;;;;;;5.85;100.00;101561.50;6212360;22;20051;-53
2021/12/19 18:24:01;;;;;;;11.98;1.80;;;;;;;6.01;100.00;101553.53;6214445;22;20151;-51
2021/12/19 18:27:06;;;;;;;27.60;8.20;;;;;;;6.00;100.00;101549.19;6250212;22;20088;-51
2021/12/19 18:30:11;;;;;;;10.68;2.35;;;;;;;6.07;100.00;101566.53;6189779;23;20031;-51
2021/12/19 18:33:16;;;;;;;19.40;5.93;;;;;;;6.16;100.00;101559.78;6203145;22;20047;-51
2021/12/19 18:36:21;;;;;;;10.65;3.50;;;;;;;6.23;100.00;101557.75;6207832;22;20130;-51
2021/12/19 18:39:29;;;;;;;14.43;3.55;;;;;;;6.33;100.00;101561.63;6209422;22;20053;-51
2021/12/19 18:42:49;;;;;;;9.00;3.10;;;;;;;6.36;100.00;101560.84;6192611;22;20070;-51
2021/12/19 18:45:59;;;;;;;9.45;1.88;;;;;;;6.42;100.00;101561.97;6202448;22;20456;-51
2021/12/19 18:49:18;;;;;;;2.78;1.15;;;;;;;6.56;100.00;101559.13;6187687;23;20043;-51
2021/12/19 18:56:06;;;;;;;18.88;4.60;;;;;;;6.71;100.00;101555.81;6012833;23;20028;-50
2021/12/19 18:59:15;;;;;;;6.32;1.85;;;;;;;6.80;100.00;101558.13;6122414;23;20032;-50
2021/12/19 19:02:36;;;;;;;8.18;1.17;;;;;;;7.01;100.00;101557.97;6128569;23;20024;-50
2021/12/19 19:05:40;;;;;;;5.80;1.95;;;;;;;6.99;100.00;101548.47;6096142;23;20048;-50
2021/12/19 19:08:43;;;;;;;13.13;4.07;;;;;;;7.02;100.00;101547.66;6111736;23;20494;-51
2021/12/19 19:11:49;;;;;;;25.05;7.13;;;;;;;7.14;100.00;101539.63;6100703;23;20052;-50
2021/12/19 19:14:53;;;;;;;17.98;5.50;;;;;;;7.24;100.00;101540.69;6121809;23;20036;-50
2021/12/19 19:17:57;;;;;;;15.77;4.70;;;;;;;7.25;100.00;101539.50;6120772;23;20092;-50
2021/12/19 19:21:00;;;;;;;46.30;9.05;;;;;;;7.25;100.00;101543.09;6121083;23;20041;-50
2021/12/19 19:24:08;;;;;;;19.05;4.80;;;;;;;7.29;100.00;101543.81;6125155;23;20354;-50
2021/12/19 19:27:11;;;;;;;18.52;2.47;;;;;;;7.31;100.00;101543.41;6157507;23;20147;-51
2021/12/19 19:30:16;;;;;;;4.22;0.95;;;;;;;7.41;100.00;101543.28;6179420;23;20255;-50
2021/12/19 19:33:19;;;;;;;4.88;1.52;;;;;;;7.50;100.00;101534.47;6180190;23;20118;-50
2021/12/19 19:36:24;;;;;;;0.35;0.28;;;;;;;7.57;100.00;101543.50;6179010;23;20094;-50
2021/12/19 19:39:50;;;;;;;6.40;0.77;;;;;;;7.56;100.00;101544.69;6174783;23;20127;-50
2021/12/19 19:43:16;;;;;;;0.73;0.20;;;;;;;7.63;100.00;101544.63;6179651;23;20036;-50
2021/12/19 19:49:41;;;;;;;3.30;1.58;;;;;;;7.51;100.00;101536.81;6209641;23;20035;-51
2021/12/19 19:52:45;;;;;;;7.03;1.75;;;;;;;7.57;100.00;101535.19;6242735;23;20027;-50
2021/12/19 19:55:48;;;;;;;1.75;0.93;;;;;;;7.67;100.00;101525.16;6242935;22;20390;-51
2021/12/19 19:58:51;;;;;;;0.68;0.68;;;;;;;7.67;100.00;101527.94;6243495;22;20502;-50
2021/12/19 20:01:57;;;;;;;5.93;1.15;;;;;;;7.73;100.00;101528.28;6230821;22;20097;-50
2021/12/19 20:05:00;;;;;;;4.45;1.35;;;;;;;7.74;100.00;101527.06;6213739;22;20070;-50
2021/12/19 20:08:03;;;;;;;6.70;0.95;;;;;;;7.73;100.00;101531.03;6232667;22;20019;-50
2021/12/19 20:11:06;;;;;;;3.33;0.80;;;;;;;7.62;100.00;101526.41;6233604;22;20062;-52
2021/12/19 20:14:10;;;;;;;3.05;0.90;;;;;;;7.52;100.00;101521.78;6233717;22;20030;-50
2021/12/19 20:17:14;;;;;;;1.55;0.20;;;;;;;7.58;100.00;101524.88;6243013;22;20055;-50
2021/12/19 20:20:18;;;;;;;1.20;0.35;;;;;;;7.58;100.00;101519.31;6242161;22;20078;-50
2021/12/19 20:23:20;;;;;;;9.32;0.52;;;;;;;7.56;100.00;101522.53;6236690;22;20336;-50
2021/12/19 20:26:24;;;;;;;2.17;0.93;;;;;;;7.60;100.00;101517.72;6242409;22;20054;-50
2021/12/19 20:29:27;;;;;;;5.47;0.40;;;;;;;7.68;100.00;101514.84;6243147;22;20051;-50
2021/12/19 20:32:30;;;;;;;1.20;0.88;;;;;;;7.61;100.00;101504.66;6237709;22;20074;-51
2021/12/19 20:35:33;;;;;;;1.85;0.50;;;;;;;7.62;100.00;101504.22;6242593;22;20039;-50
2021/12/19 20:38:36;;;;;;;0.30;0.17;;;;;;;7.64;100.00;101504.59;6242543;22;20125;-50
2021/12/19 20:41:41;;;;;;;0.32;0.25;;;;;;;7.67;100.00;101507.75;6223749;23;20023;-51
2021/12/19 20:44:44;;;;;;;2.28;0.60;;;;;;;7.70;100.00;101490.28;6242205;22;20077;-51
2021/12/19 20:47:47;;;;;;;2.05;1.02;;;;;;;7.74;100.00;101493.78;6242982;23;20034;-51
2021/12/19 20:50:53;;;;;;;16.17;0.60;;;;;;;7.73;100.00;101486.69;6242372;22;20103;-50
2021/12/19 20:53:57;;;;;;;0.95;0.47;;;;;;;7.76;100.00;101477.50;6230774;22;20023;-50
2021/12/19 20:57:00;;;;;;;0.60;0.60;;;;;;;7.76;100.00;101485.81;6231599;22;20027;-51
2021/12/19 21:00:09;;;;;;;0.57;0.57;;;;;;;7.81;100.00;101477.06;6232371;22;20330;-50
2021/12/19 21:03:12;;;;;;;1.85;0.57;;;;;;;7.84;100.00;101487.31;6242179;22;20026;-51
2021/12/19 21:06:17;;;;;;;3.05;1.00;;;;;;;7.87;100.00;101475.38;6242347;22;20119;-50
2021/12/19 21:09:21;;;;;;;2.22;0.68;;;;;;;7.85;100.00;101483.34;6242414;22;20054;-51
2021/12/19 21:12:34;;;;;;;0.75;0.35;;;;;;;7.93;100.00;101473.69;6236915;22;20082;-50
2021/12/19 21:22:21;;;;;;;0.10;0.10;;;;;;;7.98;100.00;101476.81;6235875;22;20027;-50
2021/12/19 21:25:24;;;;;;;0.10;0.10;;;;;;;8.06;100.00;101483.03;6241511;22;20105;-50
2021/12/19 21:28:27;;;;;;;1.27;0.32;;;;;;;8.08;100.00;101469.50;6242438;22;20353;-51
2021/12/19 21:31:30;;;;;;;1.17;0.52;;;;;;;8.10;100.00;101472.69;6242255;22;20070;-51
2021/12/19 21:34:43;;;;;;;2.88;1.15;;;;;;;8.13;100.00;101463.50;6242636;22;20095;-51
2021/12/19 21:41:10;;;;;;;1.17;1.00;;;;;;;8.09;100.00;101462.78;6232780;22;20042;-50
2021/12/19 21:44:14;;;;;;;2.38;1.10;;;;;;;8.09;100.00;101465.56;6232515;22;20023;-50
2021/12/19 21:47:17;;;;;;;2.47;0.55;;;;;;;8.12;100.00;101470.28;6222720;22;20023;-51
2021/12/19 21:50:21;;;;;;;1.60;0.88;;;;;;;8.15;100.00;101461.09;6240095;22;20353;-51
2021/12/19 21:53:25;;;;;;;0.85;0.50;;;;;;;8.02;100.00;101457.31;6241352;22;20027;-51
2021/12/19 21:56:28;;;;;;;0.80;0.50;;;;;;;8.01;100.00;101469.63;6223073;22;20117;-52
2021/12/19 21:59:31;;;;;;;1.20;0.70;;;;;;;7.94;100.00;101464.19;6242691;22;20070;-51
2021/12/19 22:02:34;;;;;;;0.60;0.60;;;;;;;8.10;100.00;101467.13;6242927;22;20074;-51
2021/12/19 22:05:38;;;;;;;1.92;0.85;;;;;;;8.15;100.00;101472.19;6242208;22;20023;-51
2021/12/19 22:08:44;;;;;;;6.03;0.93;;;;;;;8.15;100.00;101469.41;6241949;22;20043;-51
2021/12/19 22:12:10;;;;;;;5.25;1.35;;;;;;;8.19;100.00;101470.94;6242413;22;20027;-51
2021/12/19 22:15:25;;;;;;;0.70;0.45;;;;;;;8.24;100.00;101467.69;6223896;22;20027;-51
2021/12/19 22:18:28;;;;;;;2.08;0.55;;;;;;;8.30;100.00;101470.78;6243749;22;20023;-51
2021/12/19 22:21:31;;;;;;;0.82;0.13;;;;;;;8.37;100.00;101470.69;6244996;22;20038;-51
2021/12/19 22:24:34;;;;;;;1.40;0.40;;;;;;;8.42;100.00;101461.09;6244267;22;20468;-51
2021/12/19 22:27:38;;;;;;;3.08;0.75;;;;;;;8.35;100.00;101467.56;6244408;22;20023;-50
2021/12/19 22:30:46;;;;;;;1.27;0.95;;;;;;;8.38;100.00;101466.72;6243698;22;20047;-50
2021/12/19 22:33:50;;;;;;;2.17;0.75;;;;;;;8.42;100.00;101467.44;6243983;22;20337;-50
2021/12/19 22:36:53;;;;;;;2.20;0.60;;;;;;;8.47;100.00;101466.19;6231876;22;20103;-50
2021/12/19 22:39:57;;;;;;;1.20;0.63;;;;;;;8.49;100.00;101472.84;6232346;22;20030;-50
2021/12/19 22:43:01;;;;;;;2.38;0.50;;;;;;;8.55;100.00;101475.94;6233147;22;20096;-50
2021/12/19 22:46:05;;;;;;;2.42;1.05;;;;;;;8.60;100.00;101462.34;6234210;22;20023;-50
2021/12/19 22:49:09;;;;;;;0.68;0.30;;;;;;;8.66;100.00;101471.78;6234583;22;20046;-50
2021/12/19 22:52:12;;;;;;;5.85;1.60;;;;;;;8.70;100.00;101472.53;6244207;22;20123;-50
2021/12/19 22:55:15;;;;;;;3.40;0.77;;;;;;;8.66;100.00;101471.78;6243313;22;20058;-50
2021/12/19 22:58:18;;;;;;;0.80;0.80;;;;;;;8.61;100.00;101468.72;6243978;22;20051;-50
2021/12/19 23:01:21;;;;;;;3.10;0.82;;;;;;;8.63;100.00;101469.84;6244212;22;20077;-52
2021/12/19 23:04:24;;;;;;;3.85;0.85;;;;;;;8.52;100.00;101472.03;6243917;22;20625;-51
2021/12/19 23:07:27;;;;;;;0.40;0.30;;;;;;;8.61;100.00;101463.94;6244058;22;20023;-52
2021/12/19 23:10:31;;;;;;;5.70;0.55;;;;;;;8.66;100.00;101471.78;6242962;22;20537;-52
2021/12/19 23:13:42;;;;;;;3.78;2.00;;;;;;;8.65;100.00;101470.22;6243000;22;20070;-52
2021/12/19 23:19:52;;;;;;;4.68;1.40;;;;;;;8.78;100.00;101462.06;6243208;22;20395;-52
2021/12/19 23:22:57;;;;;;;2.38;0.93;;;;;;;8.85;100.00;101468.28;6231686;22;20078;-52
2021/12/19 23:26:00;;;;;;;1.25;0.50;;;;;;;8.97;100.00;101467.66;6232964;22;20027;-52
2021/12/19 23:29:03;;;;;;;9.10;1.67;;;;;;;8.99;100.00;101459.66;6233014;22;20027;-52
2021/12/19 23:32:06;;;;;;;2.13;1.08;;;;;;;9.06;100.00;101461.53;6234026;22;20027;-52
2021/12/19 23:35:09;;;;;;;1.50;0.88;;;;;;;9.12;100.00;101449.50;6234237;22;20066;-52
2021/12/19 23:48:04;;;;;;;2.42;1.30;;;;;;;6.96;100.00;101450.38;6233492;22;20405;-52
2021/12/19 23:51:07;;;;;;;1.50;1.10;;;;;;;8.40;100.00;101453.19;6234215;22;20070;-52
2021/12/19 23:54:10;;;;;;;0.57;0.57;;;;;;;8.06;100.00;101458.06;6234860;22;20114;-52
2021/12/19 23:57:13;;;;;;;2.65;1.38;;;;;;;8.13;100.00;101452.41;6242718;22;20039;-52
